createdAt,value
2018-03-21T00:01:32.383Z,90.10
2018-03-21T00:03:59.850Z,89.20
2018-03-21T00:06:27.336Z,87.10
2018-03-21T00:08:54.833Z,87.50
2018-03-21T00:11:23.059Z,90.10
2018-03-21T00:13:50.571Z,90.10
2018-03-21T00:16:18.060Z,90.20
2018-03-21T00:18:45.602Z,89.70
2018-03-21T00:21:13.119Z,88.70
2018-03-21T00:23:40.604Z,88.60
2018-03-21T00:26:08.881Z,87.80
2018-03-21T00:28:37.149Z,87.60
2018-03-21T00:31:05.393Z,87.00
2018-03-21T00:33:32.879Z,86.80
2018-03-21T00:36:01.125Z,86.70
2018-03-21T00:38:28.638Z,86.70
2018-03-21T00:40:56.113Z,89.50
2018-03-21T00:43:23.579Z,88.70
2018-03-21T00:45:51.088Z,87.70
2018-03-21T00:48:19.341Z,82.70
2018-03-21T00:50:46.839Z,81.90
2018-03-21T00:53:14.322Z,81.60
2018-03-21T00:55:41.824Z,82.80
2018-03-21T00:58:09.298Z,83.00
2018-03-21T01:00:37.560Z,85.10
2018-03-21T01:03:05.061Z,85.00
2018-03-21T01:05:32.564Z,85.30
2018-03-21T01:08:00.041Z,86.40
2018-03-21T01:10:28.316Z,88.70
2018-03-21T01:12:55.798Z,88.70
2018-03-21T01:15:23.292Z,87.10
2018-03-21T01:17:50.769Z,88.60
2018-03-21T01:20:18.270Z,88.10
2018-03-21T01:22:45.738Z,89.40
2018-03-21T01:25:13.239Z,84.40
2018-03-21T01:27:40.727Z,83.80
2018-03-21T01:30:08.988Z,83.10
2018-03-21T01:32:36.495Z,83.00
2018-03-21T01:35:04.009Z,85.60
2018-03-21T01:37:31.493Z,86.80
2018-03-21T01:39:59.144Z,87.60
2018-03-21T01:42:27.398Z,90.00
2018-03-21T01:44:54.876Z,90.00
2018-03-21T01:47:23.154Z,91.10
2018-03-21T01:49:50.643Z,91.10
2018-03-21T01:52:18.162Z,91.50
2018-03-21T01:54:46.409Z,92.30
2018-03-21T01:57:14.676Z,92.50
2018-03-21T01:59:42.176Z,92.50
2018-03-21T02:02:10.443Z,92.80
2018-03-21T02:04:37.919Z,92.80
2018-03-21T02:07:06.201Z,93.00
2018-03-21T02:09:33.676Z,92.90
2018-03-21T02:12:01.181Z,93.00
2018-03-21T02:14:28.662Z,93.30
2018-03-21T02:16:56.926Z,93.40
2018-03-21T02:19:25.264Z,93.60
2018-03-21T02:21:52.763Z,93.50
2018-03-21T02:24:21.011Z,93.80
2018-03-21T02:26:48.510Z,93.60
2018-03-21T02:29:16.774Z,94.10
2018-03-21T02:31:44.268Z,94.10
2018-03-21T02:34:11.744Z,94.70
2018-03-21T02:36:39.251Z,94.50
2018-03-21T02:39:07.516Z,94.80
2018-03-21T02:41:35.020Z,94.80
2018-03-21T02:44:02.498Z,95.00
2018-03-21T02:46:30.000Z,94.90
2018-03-21T02:48:57.596Z,95.40
2018-03-21T02:51:25.107Z,95.80
2018-03-21T02:53:52.584Z,95.80
2018-03-21T02:56:20.847Z,96.10
2018-03-21T02:58:49.102Z,96.10
2018-03-21T03:01:16.624Z,96.40
2018-03-21T03:03:44.114Z,96.40
2018-03-21T03:06:11.650Z,96.60
2018-03-21T03:08:39.140Z,96.60
2018-03-21T03:11:06.659Z,96.90
2018-03-21T03:13:34.193Z,97.10
2018-03-21T03:16:02.442Z,97.30
2018-03-21T03:18:30.155Z,97.30
2018-03-21T03:20:57.714Z,97.40
2018-03-21T03:23:25.238Z,97.80
2018-03-21T03:25:53.479Z,97.80
2018-03-21T03:28:21.117Z,97.80
2018-03-21T03:30:48.600Z,98.00
2018-03-21T03:33:16.082Z,98.50
2018-03-21T03:35:44.361Z,98.60
2018-03-21T03:38:12.601Z,98.30
2018-03-21T03:40:40.100Z,98.40
2018-03-21T03:43:08.340Z,98.60
2018-03-21T03:45:36.359Z,98.60
2018-03-21T03:48:04.591Z,98.60
2018-03-21T03:50:32.073Z,98.60
2018-03-21T03:52:59.589Z,98.50
2018-03-21T03:55:27.081Z,98.60
2018-03-21T03:57:54.586Z,98.80
2018-03-21T04:00:22.060Z,98.90
2018-03-21T04:02:49.563Z,99.10
2018-03-21T04:05:17.046Z,99.10
2018-03-21T04:07:44.571Z,99.30
2018-03-21T04:10:12.087Z,99.60
2018-03-21T04:12:39.589Z,99.60
2018-03-21T04:15:07.080Z,99.40
2018-03-21T04:17:34.576Z,99.30
2018-03-21T04:20:02.072Z,99.40
2018-03-21T04:22:29.589Z,99.50
2018-03-21T04:24:57.819Z,99.80
2018-03-21T04:27:26.101Z,99.90
2018-03-21T04:29:53.593Z,99.90
2018-03-21T04:32:21.092Z,99.90
2018-03-21T04:34:48.571Z,99.90
2018-03-21T04:37:16.078Z,99.90
2018-03-21T04:39:43.541Z,99.90
2018-03-21T04:42:11.047Z,99.90
2018-03-21T04:44:38.645Z,99.90
2018-03-21T04:47:08.052Z,99.80
2018-03-21T04:49:35.592Z,99.90
2018-03-21T04:52:03.116Z,99.90
2018-03-21T04:54:31.343Z,99.90
2018-03-21T04:56:58.849Z,99.90
2018-03-21T04:59:27.125Z,99.90
2018-03-21T05:01:55.433Z,99.90
2018-03-21T05:04:22.914Z,99.90
2018-03-21T05:06:50.458Z,99.90
2018-03-21T05:09:17.943Z,99.90
2018-03-21T05:11:45.449Z,99.90
2018-03-21T05:14:13.702Z,99.90
2018-03-21T05:16:41.203Z,99.90
2018-03-21T05:19:08.681Z,99.90
2018-03-21T05:21:36.185Z,99.90
2018-03-21T05:24:04.425Z,99.90
2018-03-21T05:26:31.928Z,99.90
2018-03-21T05:29:00.180Z,99.90
2018-03-21T05:31:27.691Z,99.90
2018-03-21T05:33:55.169Z,99.90
2018-03-21T05:36:22.675Z,99.90
2018-03-21T05:38:50.928Z,99.90
2018-03-21T05:41:18.471Z,99.90
2018-03-21T05:43:45.899Z,99.90
2018-03-21T05:46:13.393Z,99.90
2018-03-21T05:48:40.900Z,99.90
2018-03-21T05:51:08.404Z,99.90
2018-03-21T05:53:35.898Z,99.90
2018-03-21T05:56:04.210Z,99.90
2018-03-21T05:58:31.720Z,99.90
2018-03-21T06:00:59.232Z,99.90
2018-03-21T06:03:26.703Z,99.90
2018-03-21T06:05:54.205Z,99.90
2018-03-21T06:08:22.435Z,99.90
2018-03-21T06:10:49.931Z,99.90
2018-03-21T06:13:18.209Z,99.90
2018-03-21T06:15:46.491Z,99.90
2018-03-21T06:18:14.724Z,99.90
2018-03-21T06:20:42.326Z,99.90
2018-03-21T06:23:09.805Z,99.90
2018-03-21T06:25:37.330Z,99.90
2018-03-21T06:28:04.803Z,99.90
2018-03-21T06:30:33.108Z,99.90
2018-03-21T06:33:00.575Z,99.90
2018-03-21T06:35:28.071Z,99.90
2018-03-21T06:37:55.580Z,99.90
2018-03-21T06:40:23.069Z,99.90
2018-03-21T06:42:50.572Z,99.90
2018-03-21T06:45:18.053Z,99.90
2018-03-21T06:47:45.581Z,99.90
2018-03-21T06:50:13.864Z,99.90
2018-03-21T06:52:42.114Z,99.90
2018-03-21T06:55:09.685Z,99.90
2018-03-21T06:57:37.172Z,99.80
2018-03-21T07:00:04.849Z,99.70
2018-03-21T07:02:32.384Z,99.50
2018-03-21T07:04:59.858Z,99.00
2018-03-21T07:07:27.356Z,98.80
2018-03-21T07:09:54.902Z,98.70
2018-03-21T07:12:22.379Z,98.40
2018-03-21T07:15:01.621Z,98.10
2018-03-21T07:17:29.153Z,98.00
2018-03-21T07:19:56.653Z,97.10
2018-03-21T07:22:24.903Z,96.40
2018-03-21T07:24:52.424Z,96.20
2018-03-21T07:27:19.890Z,95.80
2018-03-21T07:29:47.424Z,95.20
2018-03-21T07:32:14.998Z,95.00
2018-03-21T07:34:42.501Z,94.70
2018-03-21T07:37:09.988Z,93.90
2018-03-21T07:39:38.257Z,92.70
2018-03-21T07:42:06.517Z,92.50
2018-03-21T07:44:34.042Z,92.40
2018-03-21T07:47:01.831Z,91.60
2018-03-21T07:49:29.336Z,89.60
2018-03-21T07:51:56.819Z,86.70
2018-03-21T07:54:25.119Z,87.60
2018-03-21T07:56:52.589Z,87.10
2018-03-21T07:59:20.099Z,85.80
2018-03-21T08:01:47.579Z,77.50
2018-03-21T08:04:15.831Z,66.50
2018-03-21T08:06:43.313Z,66.50
2018-03-21T08:09:10.795Z,61.80
2018-03-21T08:11:38.300Z,60.40
2018-03-21T08:14:05.827Z,58.90
2018-03-21T08:16:34.063Z,53.60
2018-03-21T08:19:01.562Z,53.00
2018-03-21T08:21:29.814Z,45.90
2018-03-21T08:23:57.329Z,45.80
2018-03-21T08:26:24.805Z,44.70
2018-03-21T08:28:52.312Z,43.70
2018-03-21T08:31:20.572Z,41.70
2018-03-21T08:33:48.085Z,41.60
2018-03-21T08:36:15.548Z,40.30
2018-03-21T08:38:43.061Z,39.60
2018-03-21T08:41:11.309Z,37.00
2018-03-21T08:43:38.812Z,37.00
2018-03-21T08:46:06.313Z,37.10
2018-03-21T08:48:35.415Z,35.00
2018-03-21T08:51:02.919Z,35.00
2018-03-21T08:53:31.181Z,32.80
2018-03-21T08:55:58.709Z,32.80
2018-03-21T08:58:26.232Z,31.60
2018-03-21T09:00:53.736Z,31.00
2018-03-21T09:03:21.222Z,31.00
2018-03-21T09:05:49.470Z,30.10
2018-03-21T09:08:17.019Z,30.00
2018-03-21T09:10:44.512Z,30.70
2018-03-21T09:13:12.766Z,29.30
2018-03-21T09:15:41.065Z,29.40
2018-03-21T09:18:09.282Z,28.90
2018-03-21T09:20:36.841Z,28.90
2018-03-21T09:23:05.033Z,27.00
2018-03-21T09:25:32.532Z,27.10
2018-03-21T09:28:00.759Z,26.40
2018-03-21T09:30:28.270Z,26.40
2018-03-21T09:32:56.509Z,25.60
2018-03-21T09:35:23.995Z,25.60
2018-03-21T09:37:52.269Z,22.10
2018-03-21T09:40:19.759Z,22.00
2018-03-21T09:42:47.227Z,21.40
2018-03-21T09:45:14.724Z,23.10
2018-03-21T09:47:42.197Z,21.60
2018-03-21T09:50:10.567Z,21.20
2018-03-21T09:52:38.049Z,21.00
2018-03-21T09:55:06.285Z,21.00
2018-03-21T09:57:33.967Z,21.00
2018-03-21T10:00:01.452Z,21.10
2018-03-21T10:02:28.942Z,21.90
2018-03-21T10:04:56.419Z,20.60
2018-03-21T10:07:23.917Z,19.50
2018-03-21T10:09:52.166Z,19.20
2018-03-21T10:12:19.683Z,19.20
2018-03-21T10:14:47.156Z,20.70
2018-03-21T10:17:14.659Z,20.80
2018-03-21T10:19:42.909Z,20.60
2018-03-21T10:22:10.433Z,20.60
2018-03-21T10:24:37.912Z,19.60
2018-03-21T10:27:05.830Z,19.30
2018-03-21T10:29:34.720Z,17.00
2018-03-21T10:32:02.969Z,15.80
2018-03-21T10:34:30.497Z,15.80
2018-03-21T10:36:57.978Z,17.70
2018-03-21T10:39:25.530Z,16.60
2018-03-21T10:41:52.986Z,17.00
2018-03-21T10:44:20.497Z,16.80
2018-03-21T10:46:47.984Z,16.30
2018-03-21T10:49:15.481Z,16.50
2018-03-21T10:51:43.029Z,16.30
2018-03-21T10:54:10.579Z,15.70
2018-03-21T10:56:38.056Z,15.10
2018-03-21T10:59:06.490Z,16.30
2018-03-21T11:01:36.944Z,15.80
2018-03-21T11:04:04.441Z,14.90
2018-03-21T11:06:32.736Z,14.90
2018-03-21T11:09:00.204Z,14.90
2018-03-21T11:11:27.674Z,13.70
2018-03-21T11:13:55.292Z,13.80
2018-03-21T11:16:23.551Z,13.80
2018-03-21T11:18:51.039Z,13.80
2018-03-21T11:21:18.558Z,15.70
2018-03-21T11:23:46.031Z,14.70
2018-03-21T11:26:14.324Z,14.80
2018-03-21T11:28:42.556Z,12.90
2018-03-21T11:31:10.054Z,12.90
2018-03-21T11:33:38.292Z,14.40
2018-03-21T11:36:05.831Z,14.40
2018-03-21T11:38:33.307Z,13.70
2018-03-21T11:41:00.806Z,13.60
2018-03-21T11:43:29.044Z,13.20
2018-03-21T11:45:56.592Z,13.20
2018-03-21T11:48:24.126Z,12.90
2018-03-21T11:50:51.630Z,12.70
2018-03-21T11:53:19.101Z,13.30
2018-03-21T11:55:47.379Z,12.80
2018-03-21T11:58:14.918Z,12.70
2018-03-21T12:00:42.419Z,12.40
2018-03-21T12:03:09.883Z,11.90
2018-03-21T12:05:37.396Z,12.10
2018-03-21T12:08:04.883Z,11.70
2018-03-21T12:10:33.161Z,13.90
2018-03-21T12:13:01.400Z,13.30
2018-03-21T12:15:28.910Z,13.20
2018-03-21T12:17:56.382Z,13.60
2018-03-21T12:20:23.897Z,11.70
2018-03-21T12:22:52.168Z,12.40
2018-03-21T12:25:19.697Z,12.40
2018-03-21T12:27:47.163Z,13.40
2018-03-21T12:30:14.639Z,12.90
2018-03-21T12:32:42.136Z,13.70
2018-03-21T12:35:09.636Z,12.20
2018-03-21T12:37:37.127Z,13.10
2018-03-21T12:40:04.641Z,11.70
2018-03-21T12:42:32.138Z,11.50
2018-03-21T12:45:00.377Z,12.20
2018-03-21T12:47:27.888Z,12.70
2018-03-21T12:49:55.395Z,12.10
2018-03-21T12:52:22.879Z,12.60
2018-03-21T12:54:50.398Z,12.10
2018-03-21T12:57:18.014Z,11.70
2018-03-21T12:59:46.269Z,13.20
2018-03-21T13:02:13.794Z,13.10
2018-03-21T13:04:41.318Z,13.30
2018-03-21T13:07:08.823Z,11.50
2018-03-21T13:09:36.334Z,11.80
2018-03-21T13:12:03.825Z,12.20
2018-03-21T13:14:31.358Z,12.40
2018-03-21T13:16:58.830Z,11.70
2018-03-21T13:19:26.352Z,12.40
2018-03-21T13:21:54.594Z,12.20
2018-03-21T13:24:22.093Z,12.10
2018-03-21T13:26:50.340Z,11.10
2018-03-21T13:29:17.838Z,11.10
2018-03-21T13:31:45.326Z,10.50
2018-03-21T13:34:12.845Z,11.10
2018-03-21T13:36:41.100Z,12.40
2018-03-21T13:39:08.658Z,12.40
2018-03-21T13:41:36.138Z,12.80
2018-03-21T13:44:03.659Z,11.60
2018-03-21T13:46:31.158Z,11.50
2018-03-21T13:48:58.661Z,11.40
2018-03-21T13:51:26.182Z,12.90
2018-03-21T13:53:53.657Z,14.10
2018-03-21T13:56:21.227Z,13.20
2018-03-21T13:58:48.710Z,11.80
2018-03-21T14:01:16.304Z,11.60
2018-03-21T14:03:43.791Z,11.10
2018-03-21T14:06:11.295Z,11.70
2018-03-21T14:08:38.783Z,11.50
2018-03-21T14:11:06.305Z,11.70
2018-03-21T14:13:33.787Z,12.80
2018-03-21T14:16:02.051Z,12.60
2018-03-21T14:18:29.525Z,12.60
2018-03-21T14:20:57.811Z,13.90
2018-03-21T14:23:25.292Z,13.90
2018-03-21T14:25:52.800Z,14.00
2018-03-21T14:28:20.281Z,12.00
2018-03-21T14:30:48.979Z,13.20
2018-03-21T14:33:16.478Z,13.20
2018-03-21T14:35:43.976Z,12.60
2018-03-21T14:38:12.275Z,13.20
2018-03-21T14:40:39.813Z,13.10
2018-03-21T14:43:08.064Z,13.20
2018-03-21T14:45:35.541Z,13.10
2018-03-21T14:48:03.044Z,13.70
2018-03-21T14:50:30.542Z,14.30
2018-03-21T14:52:58.077Z,14.70
2018-03-21T14:55:25.553Z,15.10
2018-03-21T14:57:53.062Z,16.30
2018-03-21T15:00:20.537Z,16.90
2018-03-21T15:02:48.041Z,17.60
2018-03-21T15:05:15.529Z,17.80
2018-03-21T15:07:43.835Z,18.50
2018-03-21T15:10:11.378Z,18.50
2018-03-21T15:12:38.849Z,19.00
2018-03-21T15:15:06.364Z,19.70
2018-03-21T15:17:34.783Z,19.80
2018-03-21T15:20:02.301Z,19.80
2018-03-21T15:22:30.566Z,21.40
2018-03-21T15:24:58.831Z,20.70
2018-03-21T15:27:26.324Z,20.70
2018-03-21T15:29:53.943Z,20.10
2018-03-21T15:32:21.498Z,19.90
2018-03-21T15:34:48.973Z,19.60
2018-03-21T15:37:17.229Z,21.40
2018-03-21T15:39:44.734Z,21.60
2018-03-21T15:42:12.335Z,20.90
2018-03-21T15:44:39.892Z,21.40
2018-03-21T15:47:07.385Z,21.80
2018-03-21T15:49:34.892Z,22.20
2018-03-21T15:52:02.384Z,22.70
2018-03-21T15:54:29.923Z,22.30
2018-03-21T15:56:57.431Z,21.70
2018-03-21T15:59:25.704Z,21.60
2018-03-21T16:01:53.983Z,21.60
2018-03-21T16:04:22.253Z,22.60
2018-03-21T16:06:49.792Z,22.60
2018-03-21T16:09:17.304Z,22.50
2018-03-21T16:11:44.800Z,22.20
2018-03-21T16:14:12.296Z,22.30
2018-03-21T16:16:40.535Z,23.60
2018-03-21T16:19:08.017Z,23.60
2018-03-21T16:21:36.295Z,23.90
2018-03-21T16:24:03.800Z,24.00
2018-03-21T16:26:31.337Z,25.20
2018-03-21T16:28:58.830Z,23.80
2018-03-21T16:31:26.440Z,23.90
2018-03-21T16:33:54.701Z,23.60
2018-03-21T16:36:22.204Z,23.60
2018-03-21T16:38:49.713Z,23.80
2018-03-21T16:41:17.237Z,24.10
2018-03-21T16:43:44.741Z,24.50
2018-03-21T16:46:12.485Z,25.40
2018-03-21T16:48:39.987Z,24.60
2018-03-21T16:51:08.218Z,25.10
2018-03-21T16:53:35.724Z,25.10
2018-03-21T16:56:03.197Z,25.30
2018-03-21T16:58:30.701Z,24.90
2018-03-21T17:00:58.172Z,24.30
2018-03-21T17:03:26.456Z,26.70
2018-03-21T17:05:54.706Z,26.70
2018-03-21T17:08:22.246Z,26.70
2018-03-21T17:10:49.778Z,27.00
2018-03-21T17:13:17.244Z,27.30
2018-03-21T17:15:44.731Z,27.70
2018-03-21T17:18:12.227Z,28.00
2018-03-21T17:20:40.502Z,28.00
2018-03-21T17:23:07.994Z,27.90
2018-03-21T17:25:35.475Z,28.00
2018-03-21T17:28:02.989Z,28.20
2018-03-21T17:30:30.454Z,28.10
2018-03-21T17:32:57.973Z,28.40
2018-03-21T17:35:25.452Z,28.90
2018-03-21T17:37:53.732Z,29.10
2018-03-21T17:40:21.963Z,29.10
2018-03-21T17:42:49.477Z,29.10
2018-03-21T17:45:17.005Z,29.70
2018-03-21T17:47:44.532Z,30.50
2018-03-21T17:50:12.009Z,31.30
2018-03-21T17:52:39.479Z,31.90
2018-03-21T17:55:07.811Z,35.00
2018-03-21T17:57:35.262Z,34.90
2018-03-21T18:00:02.798Z,35.60
2018-03-21T18:02:30.285Z,36.70
2018-03-21T18:04:57.801Z,37.60
2018-03-21T18:07:26.045Z,40.60
2018-03-21T18:09:53.533Z,40.60
2018-03-21T18:12:21.806Z,40.50
2018-03-21T18:14:50.040Z,40.20
2018-03-21T18:17:17.584Z,40.20
2018-03-21T18:19:45.063Z,41.20
2018-03-21T18:22:12.538Z,41.90
2018-03-21T18:24:40.032Z,42.60
2018-03-21T18:27:07.502Z,43.00
2018-03-21T18:29:35.007Z,43.40
2018-03-21T18:32:03.285Z,43.70
2018-03-21T18:34:30.783Z,44.60
2018-03-21T18:36:58.243Z,45.20
2018-03-21T18:39:25.766Z,46.00
2018-03-21T18:41:53.236Z,46.70
2018-03-21T18:44:21.529Z,48.90
2018-03-21T18:46:49.016Z,48.90
2018-03-21T18:49:16.527Z,49.80
2018-03-21T18:51:44.816Z,49.70
2018-03-21T18:54:13.060Z,51.30
2018-03-21T18:56:40.551Z,51.20
2018-03-21T18:59:08.153Z,52.50
2018-03-21T19:01:35.638Z,53.60
2018-03-21T19:04:03.121Z,54.40
2018-03-21T19:06:31.374Z,58.20
2018-03-21T19:08:58.860Z,58.10
2018-03-21T19:11:27.202Z,60.50
2018-03-21T19:13:54.718Z,60.40
2018-03-21T19:16:22.223Z,61.80
2018-03-21T19:18:49.715Z,63.70
2018-03-21T19:21:17.240Z,65.20
2018-03-21T19:23:45.488Z,68.30
2018-03-21T19:26:12.981Z,68.20
2018-03-21T19:28:40.464Z,69.20
2018-03-21T19:31:07.986Z,70.00
2018-03-21T19:33:35.498Z,71.10
2018-03-21T19:36:02.996Z,72.20
2018-03-21T19:38:30.464Z,73.50
2018-03-21T19:40:57.966Z,73.80
2018-03-21T19:43:25.446Z,73.80
2018-03-21T19:45:52.986Z,74.00
2018-03-21T19:48:21.207Z,77.00
2018-03-21T19:50:48.702Z,76.90
2018-03-21T19:53:16.960Z,77.90
2018-03-21T19:55:45.227Z,77.80
2018-03-21T19:58:12.726Z,77.70
2018-03-21T20:00:40.311Z,78.10
2018-03-21T20:03:07.821Z,79.20
2018-03-21T20:05:36.115Z,79.20
2018-03-21T20:08:04.425Z,73.20
2018-03-21T20:10:31.962Z,73.10
2018-03-21T20:12:59.482Z,69.20
2018-03-21T20:15:26.956Z,68.80
2018-03-21T20:17:55.337Z,68.90
2018-03-21T20:20:23.581Z,69.20
2018-03-21T20:22:51.064Z,69.20
2018-03-21T20:25:19.338Z,70.70
2018-03-21T20:27:47.586Z,73.70
2018-03-21T20:30:15.110Z,73.50
2018-03-21T20:32:42.616Z,75.20
2018-03-21T20:35:10.916Z,78.40
2018-03-21T20:37:39.154Z,78.50
2018-03-21T20:40:06.663Z,78.30
2018-03-21T20:42:34.174Z,78.90
2018-03-21T20:45:01.684Z,79.80
2018-03-21T20:47:29.174Z,80.40
2018-03-21T20:49:56.700Z,81.50
2018-03-21T20:52:24.212Z,81.60
2018-03-21T20:54:51.743Z,82.00
2018-03-21T20:57:20.072Z,82.70
2018-03-21T20:59:48.348Z,83.30
2018-03-21T21:02:16.595Z,85.30
2018-03-21T21:04:44.917Z,86.00
2018-03-21T21:07:12.404Z,86.00
2018-03-21T21:09:39.956Z,85.50
2018-03-21T21:12:07.450Z,85.30
2018-03-21T21:14:34.948Z,85.30
2018-03-21T21:17:02.460Z,85.30
2018-03-21T21:19:29.966Z,85.60
2018-03-21T21:21:57.518Z,86.10
2018-03-21T21:24:25.795Z,87.30
2018-03-21T21:26:54.057Z,87.40
2018-03-21T21:29:22.310Z,87.40
2018-03-21T21:31:49.825Z,87.40
2018-03-21T21:34:17.325Z,87.70
2018-03-21T21:36:44.835Z,88.30
2018-03-21T21:39:12.322Z,88.20
2018-03-21T21:41:39.832Z,88.70
2018-03-21T21:44:08.097Z,89.70
2018-03-21T21:46:36.372Z,89.40
2018-03-21T21:49:14.597Z,89.10
2018-03-21T21:51:42.869Z,86.10
2018-03-21T21:54:11.146Z,85.80
2018-03-21T21:56:39.400Z,87.60
2018-03-21T21:59:06.888Z,87.50
2018-03-21T22:01:34.390Z,87.30
2018-03-21T22:04:01.855Z,87.20
2018-03-21T22:06:29.353Z,86.70
2018-03-21T22:08:57.600Z,86.10
2018-03-21T22:11:25.213Z,86.10
2018-03-21T22:13:52.703Z,86.70
2018-03-21T22:16:20.207Z,86.40
2018-03-21T22:18:48.464Z,87.80
2018-03-21T22:21:16.790Z,87.70
2018-03-21T22:23:44.265Z,87.40
2018-03-21T22:26:11.735Z,87.90
2018-03-21T22:28:39.263Z,88.70
2018-03-21T22:31:06.750Z,89.40
2018-03-21T22:33:34.221Z,89.10
2018-03-21T22:36:01.707Z,89.80
2018-03-21T22:38:29.956Z,90.20
2018-03-21T22:40:57.579Z,90.20
2018-03-21T22:43:25.073Z,90.30
2018-03-21T22:45:52.572Z,90.50
2018-03-21T22:48:20.076Z,90.90
2018-03-21T22:50:47.568Z,90.70
2018-03-21T22:53:15.841Z,90.90
2018-03-21T22:55:44.089Z,91.00
2018-03-21T22:58:12.355Z,91.30
2018-03-21T23:00:39.861Z,91.30
2018-03-21T23:03:08.160Z,91.70
2018-03-21T23:05:35.665Z,91.70
2018-03-21T23:08:03.156Z,91.50
2018-03-21T23:10:31.431Z,91.60
2018-03-21T23:12:59.681Z,91.40
2018-03-21T23:15:27.163Z,91.40
2018-03-21T23:17:55.508Z,90.80
2018-03-21T23:20:23.023Z,90.80
2018-03-21T23:22:50.522Z,90.60
2018-03-21T23:25:18.010Z,90.70
2018-03-21T23:27:46.316Z,91.20
2018-03-21T23:30:13.802Z,91.20
2018-03-21T23:32:41.308Z,91.70
2018-03-21T23:35:09.544Z,92.10
2018-03-21T23:37:37.203Z,92.10
2018-03-21T23:40:04.692Z,92.10
2018-03-21T23:42:32.947Z,92.40
2018-03-21T23:45:00.451Z,92.40
2018-03-21T23:47:27.937Z,92.40
2018-03-21T23:49:55.463Z,92.20
2018-03-21T23:52:22.942Z,92.30
2018-03-21T23:54:50.453Z,92.30
2018-03-21T23:57:17.978Z,92.30
2018-03-21T23:59:45.481Z,92.50
